Gibbsboro, New Jersey
Current Conditions -  °F | °C
As of 1:54 PM on Friday 24 Oct 2014 (Local Time) from KVAY Reporting Station
Clear Clear  
Wind Chill: 66°   Ceiling: Unl
Heat Index: 66°   Visibility: 10mi
Dew Point: 44°   Wind: 14mph
Humidity: 45%   Direction: 340°NNW
Pressure: 29.8"   Gusts: 24mph
Location:  39.84°N, 74.96°W
Report Text: KVAY 241754Z AUTO 34012G21KT 10SM CLR 19/07 A2980 RMK AO2 SLP091 T01890067 10189 20122 57020
Loading
Personal Weather Stations






























Interactive Weather Map
Tropical Storm Tracking
New forecast layout! Learn more

10-Day Weather Forecast

Advertisements
Track Severe Weather on mobile